Time;durP1;ratioP1;P1;durP2;ratioP2;P2;SDS_P1;SDS_P2;PMS_P1;PMS_P2;Temp;Humidity;BMP_temperature;BMP_pressure;BME280_temperature;BME280_humidity;BME280_pressure;Samples;Min_cycle;Max_cycle;Signal;HPM_P1;HPM_P2
2023/03/26 08:55:20;;;;;;;;;;;;;;;;;;4985406;28;19961;-85
2023/03/26 08:57:58;;;;;;;;;;;;;;;;;;4976998;28;20415;-83
2023/03/26 09:00:25;;;;;;;;;;;;;;;;;;4976667;28;19914;-83
2023/03/26 09:03:07;;;;;;;;;;;;;;;;;;4995061;28;20249;-84
2023/03/26 09:05:52;;;;;;;;;;;;;;;;;;4995110;28;19921;-85
2023/03/26 09:08:26;;;;;;;;;;;;;;;;;;4996347;28;19918;-84
2023/03/26 09:11:02;;;;;;;;;;;;;;;;;;4996305;28;19972;-86
2023/03/26 09:13:45;;;;;;;;;;;;;;;;;;4996230;28;20323;-84
2023/03/26 09:16:16;;;;;;;;;;;;;;;;;;4996184;28;19921;-84
2023/03/26 09:18:52;;;;;;;;;;;;;;;;;;4994677;28;20280;-84
2023/03/26 09:21:36;;;;;;;;;;;;;;;;;;4996188;28;19913;-82
2023/03/26 09:24:04;;;;;;;;;;;;;;;;;;4996261;28;19918;-83
2023/03/26 09:26:49;;;;;;;;;;;;;;;;;;4994674;28;20020;-85
2023/03/26 09:29:18;;;;;;;;;;;;;;;;;;4994949;28;19918;-87
2023/03/26 09:32:01;;;;;;;;;;;;;;;;;;4994521;28;20012;-85
2023/03/26 09:34:35;;;;;;;;;;;;;;;;;;4995764;28;20043;-85
2023/03/26 09:37:27;;;;;;;;;;;;;;;;;;4994639;28;20352;-85
2023/03/26 09:40:04;;;;;;;;;;;;;;;;;;4992909;28;20003;-85
2023/03/26 09:42:55;;;;;;;;;;;;;;;;;;4995768;28;19968;-86
2023/03/26 09:45:45;;;;;;;;;;;;;;;;;;4980056;28;20004;-85
2023/03/26 09:48:29;;;;;;;;;;;;;;;;;;4994873;28;19918;-84
2023/03/26 09:50:55;;;;;;;;;;;;;;;;;;4995508;28;19913;-83
2023/03/26 09:53:32;;;;;;;;;;;;;;;;;;4994969;28;19910;-82
2023/03/26 09:56:08;;;;;;;;;;;;;;;;;;5024197;28;19917;-83
2023/03/26 09:58:51;;;;;;;;;;;;;;;;;;5034668;28;19913;-85
2023/03/26 10:01:18;;;;;;;;;;;;;;;;;;5016802;28;20474;-85
2023/03/26 10:03:59;;;;;;;;;;;;;;;;;;5034758;28;20382;-82
2023/03/26 10:06:25;;;;;;;;;;;;;;;;;;5034441;28;20078;-85
2023/03/26 10:09:08;;;;;;;;;;;;;;;;;;5017046;28;20394;-84
2023/03/26 12:56:26;;;;;;;;;;;;;;;;;;5012545;28;20008;-84
2023/03/26 12:58:53;;;;;;;;;;;;;;;;;;5016206;28;20451;-84
2023/03/26 13:01:27;;;;;;;;;;;;;;;;;;5015812;28;19951;-85
2023/03/26 13:03:59;;;;;;;;;;;;;;;;;;5015957;28;20315;-85
2023/03/26 13:06:26;;;;;;;;;;;;;;;;;;5036041;28;20011;-85
2023/03/26 13:09:02;;;;;;;;;;;;;;;;;;5035620;28;19955;-84
2023/03/26 13:11:36;;;;;;;;;;;;;;;;;;5035633;28;19967;-84
2023/03/26 13:14:07;;;;;;;;;;;;;;;;;;5035352;28;19913;-84
2023/03/26 13:16:39;;;;;;;;;;;;;;;;;;5017752;28;19913;-83
2023/03/26 13:19:16;;;;;;;;;;;;;;;;;;5035402;28;19920;-83
2023/03/26 13:21:54;;;;;;;;;;;;;;;;;;5035708;28;19921;-85
2023/03/26 13:24:39;;;;;;;;;;;;;;;;;;5035399;28;19913;-84
2023/03/26 13:27:23;;;;;;;;;;;;;;;;;;5033474;28;20358;-83
2023/03/26 13:29:55;;;;;;;;;;;;;;;;;;5035348;28;20286;-86
2023/03/26 13:32:29;;;;;;;;;;;;;;;;;;5035009;28;20325;-85
2023/03/26 13:34:55;;;;;;;;;;;;;;;;;;5035118;28;19967;-86
2023/03/26 13:37:23;;;;;;;;;;;;;;;;;;5035321;28;19913;-86
2023/03/26 13:39:58;;;;;;;;;;;;;;;;;;5035041;28;19947;-87
2023/03/26 13:42:25;;;;;;;;;;;;;;;;;;5035281;28;20386;-88
2023/03/26 13:45:09;;;;;;;;;;;;;;;;;;5017480;28;19919;-85
2023/03/26 13:47:36;;;;;;;;;;;;;;;;;;5035286;28;19913;-84
2023/03/26 13:50:05;;;;;;;;;;;;;;;;;;5035134;28;19913;-84
2023/03/26 13:52:33;;;;;;;;;;;;;;;;;;5034986;28;19972;-84
2023/03/26 13:55:10;;;;;;;;;;;;;;;;;;5034989;28;20383;-84
2023/03/26 13:57:42;;;;;;;;;;;;;;;;;;5016882;28;20280;-84
2023/03/26 14:00:15;;;;;;;;;;;;;;;;;;5034649;28;19971;-84
2023/03/26 14:02:40;;;;;;;;;;;;;;;;;;5034499;28;19917;-84
2023/03/26 14:05:12;;;;;;;;;;;;;;;;;;5034739;28;20387;-85
2023/03/26 14:07:43;;;;;;;;;;;;;;;;;;5034413;28;19913;-85
2023/03/26 14:10:14;;;;;;;;;;;;;;;;;;5034727;28;19944;-84
2023/03/26 14:12:51;;;;;;;;;;;;;;;;;;5034542;28;19913;-84
2023/03/26 14:15:20;;;;;;;;;;;;;;;;;;5036113;28;19983;-84
2023/03/26 14:18:04;;;;;;;;;;;;;;;;;;5034398;28;19913;-85
2023/03/26 14:20:38;;;;;;;;;;;;;;;;;;5035290;28;19917;-84
2023/03/26 14:23:10;;;;;;;;;;;;;;;;;;5016772;28;20261;-84
2023/03/26 14:25:44;;;;;;;;;;;;;;;;;;5034359;28;20011;-84
2023/03/26 14:28:28;;;;;;;;;;;;;;;;;;5034228;28;19913;-84
2023/03/26 14:30:56;;;;;;;;;;;;;;;;;;5034434;28;20406;-84
2023/03/26 14:33:40;;;;;;;;;;;;;;;;;;5033983;28;19935;-84
2023/03/26 14:36:09;;;;;;;;;;;;;;;;;;5034219;28;19920;-84
2023/03/26 14:38:46;;;;;;;;;;;;;;;;;;5033993;28;19939;-84
2023/03/26 14:41:17;;;;;;;;;;;;;;;;;;5034027;28;19913;-84
2023/03/26 14:44:01;;;;;;;;;;;;;;;;;;5033890;28;19913;-84
2023/03/26 14:46:35;;;;;;;;;;;;;;;;;;5034003;28;20267;-84
2023/03/26 14:49:05;;;;;;;;;;;;;;;;;;5016131;28;20305;-84
2023/03/26 14:51:44;;;;;;;;;;;;;;;;;;5034165;28;19917;-84
2023/03/26 14:54:12;;;;;;;;;;;;;;;;;;5034034;28;19918;-84
2023/03/26 14:56:43;;;;;;;;;;;;;;;;;;5033587;28;19928;-84
2023/03/26 14:59:21;;;;;;;;;;;;;;;;;;5033953;28;19928;-84
2023/03/26 15:02:05;;;;;;;;;;;;;;;;;;5016054;28;19924;-84
2023/03/26 15:04:40;;;;;;;;;;;;;;;;;;5016526;28;19988;-84
2023/03/26 15:07:05;;;;;;;;;;;;;;;;;;5033913;28;19924;-84
2023/03/26 15:09:37;;;;;;;;;;;;;;;;;;5016015;28;19917;-84
2023/03/26 15:12:09;;;;;;;;;;;;;;;;;;5033747;28;19927;-84
2023/03/26 15:14:49;;;;;;;;;;;;;;;;;;5033783;28;19952;-84
2023/03/26 15:17:15;;;;;;;;;;;;;;;;;;5033788;28;19925;-84
2023/03/26 15:19:43;;;;;;;;;;;;;;;;;;5015903;28;19921;-85
2023/03/26 15:22:11;;;;;;;;;;;;;;;;;;5033612;28;19917;-84
2023/03/26 15:24:55;;;;;;;;;;;;;;;;;;5033869;28;20390;-84
2023/03/26 15:27:33;;;;;;;;;;;;;;;;;;5033704;28;20414;-84
2023/03/26 15:30:19;;;;;;;;;;;;;;;;;;5015906;28;19917;-84
2023/03/26 15:33:04;;;;;;;;;;;;;;;;;;5033671;28;19917;-84
2023/03/26 15:35:35;;;;;;;;;;;;;;;;;;5016162;28;19917;-83
2023/03/26 15:38:12;;;;;;;;;;;;;;;;;;5033982;28;19921;-84
2023/03/26 15:41:07;;;;;;;;;;;;;;;;;;5015776;28;19917;-84
2023/03/26 15:43:58;;;;;;;;;;;;;;;;;;4946112;28;19918;-84
2023/03/26 15:46:34;;;;;;;;;;;;;;;;;;5028429;28;19921;-84
2023/03/26 15:49:11;;;;;;;;;;;;;;;;;;5033536;28;19921;-88
2023/03/26 15:51:45;;;;;;;;;;;;;;;;;;5018150;28;19917;-85
2023/03/26 15:54:27;;;;;;;;;;;;;;;;;;5019679;28;20275;-88
2023/03/26 15:57:02;;;;;;;;;;;;;;;;;;5036882;28;20264;-84
2023/03/26 15:59:33;;;;;;;;;;;;;;;;;;5037276;28;20403;-85
2023/03/26 16:02:17;;;;;;;;;;;;;;;;;;5038645;28;19913;-92
2023/03/26 16:04:52;;;;;;;;;;;;;;;;;;5020398;28;20018;-93
2023/03/26 16:07:37;;;;;;;;;;;;;;;;;;5020207;28;19920;-86
2023/03/26 16:10:09;;;;;;;;;;;;;;;;;;5036781;28;19917;-85
2023/03/26 16:12:44;;;;;;;;;;;;;;;;;;5037113;28;19960;-86
2023/03/26 16:15:18;;;;;;;;;;;;;;;;;;5019066;28;19968;-88
2023/03/26 16:18:02;;;;;;;;;;;;;;;;;;5037317;28;19921;-89
2023/03/26 16:20:31;;;;;;;;;;;;;;;;;;5037839;28;19918;-92
2023/03/26 16:23:03;;;;;;;;;;;;;;;;;;5037778;28;19917;-93
2023/03/26 16:25:32;;;;;;;;;;;;;;;;;;5019201;28;19968;-87
2023/03/26 16:28:10;;;;;;;;;;;;;;;;;;5036455;28;20020;-87
2023/03/26 16:30:36;;;;;;;;;;;;;;;;;;5036544;28;19917;-88
2023/03/26 16:33:09;;;;;;;;;;;;;;;;;;5036463;28;19964;-86
2023/03/26 16:35:52;;;;;;;;;;;;;;;;;;5036402;28;19924;-87
2023/03/26 16:38:23;;;;;;;;;;;;;;;;;;5036263;28;19917;-87
2023/03/26 16:41:00;;;;;;;;;;;;;;;;;;5036378;28;19917;-87
